Time;durP1;ratioP1;P1;durP2;ratioP2;P2;SDS_P1;SDS_P2;PMS_P1;PMS_P2;Temp;Humidity;BMP_temperature;BMP_pressure;BME280_temperature;BME280_humidity;BME280_pressure;Samples;Min_cycle;Max_cycle;Signal;HPM_P1;HPM_P2
2021/01/15 00:01:19;;;;;;;8.07;7.30;;;0.20;99.90;;;;;;4971415;28;20207;-26
2021/01/15 00:03:46;;;;;;;12.55;7.97;;;0.10;99.90;;;;;;4973664;28;20222;-25
2021/01/15 00:06:20;;;;;;;9.07;6.57;;;0.10;99.90;;;;;;4972211;28;20199;-26
2021/01/15 00:08:47;;;;;;;10.80;7.10;;;0.00;99.90;;;;;;4974337;28;20207;-25
2021/01/15 00:11:20;;;;;;;10.05;7.45;;;-0.10;99.90;;;;;;4973638;28;20227;-25
2021/01/15 00:13:47;;;;;;;7.47;6.78;;;-0.10;99.90;;;;;;4973698;28;20195;-25
2021/01/15 00:16:22;;;;;;;13.55;7.40;;;-0.10;99.90;;;;;;4956828;28;20586;-26
2021/01/15 00:18:50;;;;;;;7.65;6.25;;;-0.20;99.90;;;;;;4972091;28;20210;-26
2021/01/15 00:21:24;;;;;;;7.55;6.75;;;-0.20;99.90;;;;;;4972060;28;20184;-26
2021/01/15 00:23:51;;;;;;;6.18;5.57;;;-0.20;99.90;;;;;;4972075;28;20395;-26
2021/01/15 00:26:20;;;;;;;7.90;7.03;;;-0.20;99.90;;;;;;4970972;28;20210;-25
2021/01/15 00:28:46;;;;;;;7.65;6.85;;;-0.30;99.90;;;;;;4971993;28;20232;-26
2021/01/15 00:31:13;;;;;;;8.02;7.15;;;-0.30;99.90;;;;;;4972287;28;20219;-26
2021/01/15 00:33:40;;;;;;;6.78;6.18;;;-0.30;99.90;;;;;;4971541;28;20206;-25
2021/01/15 00:36:08;;;;;;;7.22;6.53;;;-0.30;99.90;;;;;;4956314;28;20217;-25
2021/01/15 00:38:35;;;;;;;9.65;8.25;;;-0.30;99.90;;;;;;4973942;28;20501;-25
2021/01/15 00:41:04;;;;;;;7.55;6.85;;;-0.20;99.90;;;;;;4972245;28;20364;-25
2021/01/15 00:43:31;;;;;;;12.10;7.22;;;-0.30;99.90;;;;;;4972405;28;20207;-26
2021/01/15 00:45:58;;;;;;;7.22;6.50;;;-0.30;99.90;;;;;;4954189;28;20199;-25
2021/01/15 00:48:25;;;;;;;8.05;7.10;;;-0.30;99.90;;;;;;4972570;28;20232;-26
2021/01/15 00:50:51;;;;;;;8.93;8.02;;;-0.30;99.90;;;;;;4973345;28;20515;-25
2021/01/15 00:53:19;;;;;;;9.77;8.40;;;-0.40;99.90;;;;;;4961196;28;20641;-25
2021/01/15 00:55:46;;;;;;;8.00;7.20;;;-0.30;99.90;;;;;;4971796;28;20203;-25
2021/01/15 00:58:14;;;;;;;9.02;8.13;;;-0.40;99.90;;;;;;4971467;28;20207;-25
2021/01/15 01:00:42;;;;;;;9.73;7.43;;;-0.50;99.90;;;;;;4971293;28;20298;-25
2021/01/15 01:03:20;;;;;;;11.40;8.60;;;-0.50;99.90;;;;;;4970651;28;20223;-25
2021/01/15 01:05:47;;;;;;;9.73;8.73;;;-0.60;99.90;;;;;;4972331;28;20831;-25
2021/01/15 01:08:13;;;;;;;8.70;7.88;;;-0.60;99.90;;;;;;4972352;28;20214;-25
2021/01/15 01:10:41;;;;;;;8.50;7.45;;;-0.70;99.90;;;;;;4972632;28;20233;-26
2021/01/15 01:13:07;;;;;;;8.70;7.68;;;-0.70;99.90;;;;;;4972182;28;20210;-25
2021/01/15 01:15:34;;;;;;;9.50;7.55;;;-0.70;99.90;;;;;;4970959;28;20195;-25
2021/01/15 01:18:01;;;;;;;14.05;8.10;;;-0.80;99.90;;;;;;4972121;28;20208;-25
2021/01/15 01:20:28;;;;;;;10.63;8.40;;;-0.80;99.90;;;;;;4973283;28;20215;-25
2021/01/15 01:22:54;;;;;;;10.18;8.05;;;-0.80;99.90;;;;;;4972860;28;20229;-25
2021/01/15 01:25:21;;;;;;;12.20;7.93;;;-0.70;99.90;;;;;;4971140;28;20262;-25
2021/01/15 01:27:49;;;;;;;10.05;7.85;;;-0.80;99.90;;;;;;4975181;28;20521;-25
2021/01/15 01:30:16;;;;;;;10.38;7.78;;;-0.80;99.90;;;;;;4976167;28;20195;-25
2021/01/15 01:32:43;;;;;;;8.65;7.45;;;-0.80;99.90;;;;;;4971997;28;20226;-25
2021/01/15 01:35:10;;;;;;;8.60;7.70;;;-0.90;99.90;;;;;;4970738;28;20203;-25
2021/01/15 01:37:37;;;;;;;9.27;8.38;;;-0.80;99.90;;;;;;4971050;28;20207;-25
2021/01/15 01:40:05;;;;;;;10.77;8.18;;;-0.90;99.90;;;;;;4972187;28;20196;-25
2021/01/15 01:42:31;;;;;;;12.15;7.85;;;-1.00;99.90;;;;;;4972749;28;20200;-25
2021/01/15 01:44:59;;;;;;;9.75;8.15;;;-0.90;99.90;;;;;;4972558;28;20207;-25
2021/01/15 01:47:26;;;;;;;9.70;8.70;;;-1.00;99.90;;;;;;4971352;28;20200;-25
2021/01/15 01:49:52;;;;;;;10.20;9.18;;;-1.00;99.90;;;;;;4971616;28;20203;-25
2021/01/15 01:52:19;;;;;;;9.13;7.25;;;-1.00;99.90;;;;;;4972587;28;20302;-25
2021/01/15 01:54:47;;;;;;;9.02;8.05;;;-1.00;99.90;;;;;;4972162;28;20206;-25
2021/01/15 01:57:14;;;;;;;13.75;8.85;;;-1.00;99.90;;;;;;4970949;28;20254;-25
2021/01/15 01:59:40;;;;;;;9.48;7.90;;;-1.00;99.90;;;;;;4970563;28;20210;-25
2021/01/15 02:02:09;;;;;;;9.35;8.40;;;-1.10;99.90;;;;;;4972321;28;20180;-25
2021/01/15 02:04:36;;;;;;;8.82;8.00;;;-1.10;99.90;;;;;;4971884;28;20199;-25
2021/01/15 02:07:02;;;;;;;11.35;8.05;;;-1.10;99.90;;;;;;4971242;28;20688;-26
2021/01/15 02:09:39;;;;;;;10.30;9.27;;;-1.10;99.90;;;;;;4970265;28;20203;-25
2021/01/15 02:12:26;;;;;;;8.18;7.47;;;-1.10;99.90;;;;;;4971466;28;20249;-25
2021/01/15 02:15:03;;;;;;;12.63;8.93;;;-1.10;99.90;;;;;;4970985;28;20963;-25
2021/01/15 02:17:38;;;;;;;9.70;8.00;;;-1.00;99.90;;;;;;4970518;28;20330;-25
2021/01/15 02:20:43;;;;;;;11.07;8.40;;;-1.00;99.90;;;;;;4971158;28;20409;-25
2021/01/15 02:23:14;;;;;;;11.13;8.55;;;-1.00;99.90;;;;;;4969469;28;20257;-25
2021/01/15 02:26:14;;;;;;;12.65;8.80;;;-1.00;99.90;;;;;;4969879;28;20532;-25
2021/01/15 02:29:01;;;;;;;13.75;9.07;;;-1.00;99.90;;;;;;4970375;28;20876;-25
2021/01/15 02:32:08;;;;;;;8.73;7.80;;;-1.00;99.90;;;;;;4970132;28;20211;-25
2021/01/15 02:34:50;;;;;;;10.73;8.93;;;-1.10;99.90;;;;;;4971015;28;20680;-25
2021/01/15 02:37:22;;;;;;;12.57;8.65;;;-1.10;99.90;;;;;;4971821;28;20772;-25
2021/01/15 02:40:02;;;;;;;12.27;9.75;;;-1.10;99.90;;;;;;4971073;28;20575;-25
2021/01/15 02:42:34;;;;;;;12.32;9.00;;;-1.20;99.90;;;;;;4971532;28;20192;-25
2021/01/15 02:45:04;;;;;;;12.27;9.48;;;-1.20;99.90;;;;;;4970858;28;20231;-25
2021/01/15 02:47:46;;;;;;;15.32;8.43;;;-1.10;99.90;;;;;;4970835;28;20195;-25
2021/01/15 02:50:14;;;;;;;14.82;10.23;;;-1.20;99.90;;;;;;4971740;28;20203;-25
2021/01/15 02:52:42;;;;;;;10.07;8.95;;;-1.20;99.90;;;;;;4974294;28;20255;-25
2021/01/15 02:55:11;;;;;;;11.32;8.93;;;-1.30;99.90;;;;;;4974822;28;20730;-25
2021/01/15 02:57:38;;;;;;;12.80;9.27;;;-1.30;99.90;;;;;;4974529;28;20198;-25
2021/01/15 03:00:07;;;;;;;10.40;9.02;;;-1.30;99.90;;;;;;4975266;28;20492;-25
2021/01/15 03:02:42;;;;;;;9.60;8.50;;;-1.30;99.90;;;;;;4974528;28;20196;-25
2021/01/15 03:05:13;;;;;;;14.68;8.60;;;-1.30;99.90;;;;;;4975149;28;20229;-25
2021/01/15 03:07:45;;;;;;;10.45;8.35;;;-1.40;99.90;;;;;;4975051;28;20565;-25
2021/01/15 03:10:13;;;;;;;10.15;9.15;;;-1.40;99.90;;;;;;4974143;28;20734;-25
2021/01/15 03:12:43;;;;;;;8.77;8.07;;;-1.40;99.90;;;;;;4974275;28;20426;-25
2021/01/15 03:15:11;;;;;;;10.15;8.18;;;-1.30;99.90;;;;;;4973846;28;20187;-25
2021/01/15 03:17:43;;;;;;;11.52;8.48;;;-1.30;99.90;;;;;;4974432;28;20262;-25
2021/01/15 03:20:10;;;;;;;12.15;9.13;;;-1.30;99.90;;;;;;4973652;28;20211;-27
2021/01/15 03:22:39;;;;;;;9.32;8.38;;;-1.20;99.90;;;;;;4956059;28;20306;-25
2021/01/15 03:25:07;;;;;;;9.27;8.02;;;-1.20;99.90;;;;;;4973977;28;20601;-25
2021/01/15 03:27:43;;;;;;;9.75;7.68;;;-1.20;99.90;;;;;;4973910;28;20616;-26
2021/01/15 03:30:12;;;;;;;9.23;8.18;;;-1.10;99.90;;;;;;4974157;28;20218;-25
2021/01/15 03:32:39;;;;;;;9.95;7.45;;;-1.10;99.90;;;;;;4973514;28;20247;-25
2021/01/15 03:35:07;;;;;;;13.88;8.50;;;-1.00;99.90;;;;;;4973516;28;20208;-25
2021/01/15 03:37:34;;;;;;;8.20;7.40;;;-1.10;99.90;;;;;;4974349;28;20226;-25
2021/01/15 03:40:02;;;;;;;8.60;7.80;;;-1.10;99.90;;;;;;4973265;28;20254;-25
2021/01/15 03:42:29;;;;;;;10.65;7.63;;;-1.20;99.90;;;;;;4974206;28;20207;-25
2021/01/15 03:44:56;;;;;;;12.55;8.43;;;-1.30;99.90;;;;;;4973198;28;20199;-25
2021/01/15 03:47:23;;;;;;;14.73;8.60;;;-1.50;99.90;;;;;;4973007;28;20199;-25
2021/01/15 03:49:49;;;;;;;10.15;7.57;;;-1.60;99.90;;;;;;4955733;28;20191;-25
2021/01/15 03:52:16;;;;;;;10.45;9.55;;;-1.60;99.90;;;;;;4972878;28;20246;-25
2021/01/15 03:54:43;;;;;;;10.35;8.82;;;-1.50;99.90;;;;;;4973518;28;20199;-25
2021/01/15 03:57:09;;;;;;;12.70;8.63;;;-1.50;99.90;;;;;;4972623;28;20516;-25
2021/01/15 03:59:37;;;;;;;10.02;7.93;;;-1.60;99.90;;;;;;4973067;28;20203;-25
2021/01/15 04:02:04;;;;;;;13.95;8.80;;;-1.60;99.90;;;;;;4971944;28;20196;-25
2021/01/15 04:04:31;;;;;;;9.40;7.43;;;-1.60;99.90;;;;;;4972700;28;20264;-25
2021/01/15 04:06:59;;;;;;;9.52;8.52;;;-1.50;99.90;;;;;;4973284;28;20210;-25
2021/01/15 04:09:26;;;;;;;11.70;7.38;;;-1.50;99.90;;;;;;4973900;28;20208;-25
2021/01/15 04:11:52;;;;;;;9.30;8.20;;;-1.50;99.90;;;;;;4955441;28;20219;-25
2021/01/15 04:14:19;;;;;;;9.77;7.80;;;-1.50;99.90;;;;;;4972637;28;20207;-25
2021/01/15 04:16:51;;;;;;;8.30;7.50;;;-1.50;99.90;;;;;;4972940;28;20211;-25
2021/01/15 04:19:18;;;;;;;8.82;8.02;;;-1.50;99.90;;;;;;4972840;28;20225;-25
2021/01/15 04:21:45;;;;;;;12.02;9.05;;;-1.60;99.90;;;;;;4972378;28;20218;-25
2021/01/15 04:24:11;;;;;;;9.90;8.57;;;-1.70;99.90;;;;;;4971361;28;20199;-25
2021/01/15 04:26:38;;;;;;;10.07;9.07;;;-1.60;99.90;;;;;;4971378;28;20218;-25
2021/01/15 04:29:05;;;;;;;12.38;8.63;;;-1.60;99.90;;;;;;4972101;28;20560;-25
2021/01/15 04:31:32;;;;;;;11.73;9.38;;;-1.60;99.90;;;;;;4971025;28;20215;-25
2021/01/15 04:34:00;;;;;;;9.25;8.27;;;-1.60;99.90;;;;;;4970723;28;20199;-25
2021/01/15 04:36:26;;;;;;;9.23;8.43;;;-1.60;99.90;;;;;;4971477;28;20188;-25
2021/01/15 04:38:53;;;;;;;11.70;8.38;;;-1.60;99.90;;;;;;4971431;28;20270;-25
2021/01/15 04:41:23;;;;;;;11.85;9.68;;;-1.60;99.90;;;;;;4971407;28;20199;-25
2021/01/15 04:43:54;;;;;;;9.80;8.77;;;-1.60;99.90;;;;;;4972201;28;20239;-25
2021/01/15 04:46:21;;;;;;;10.70;8.93;;;-1.60;99.90;;;;;;4971693;28;20655;-25
2021/01/15 04:48:50;;;;;;;14.00;9.40;;;-1.60;99.90;;;;;;4970413;28;20266;-25
2021/01/15 04:51:21;;;;;;;12.50;9.35;;;-1.60;99.90;;;;;;4971711;28;20652;-25
2021/01/15 04:53:56;;;;;;;9.98;9.00;;;-1.70;99.90;;;;;;4970182;28;20235;-25
2021/01/15 04:56:36;;;;;;;20.92;9.50;;;-1.80;99.90;;;;;;4970481;28;20214;-25
2021/01/15 04:59:04;;;;;;;10.85;9.75;;;-1.80;99.90;;;;;;4967725;28;20207;-25
2021/01/15 05:01:49;;;;;;;9.95;8.85;;;-1.80;99.90;;;;;;4969268;28;20203;-25
2021/01/15 05:04:18;;;;;;;11.82;10.13;;;-1.80;99.90;;;;;;4969809;28;20207;-25
2021/01/15 05:06:48;;;;;;;14.77;9.48;;;-1.80;99.90;;;;;;4970327;28;20274;-25
2021/01/15 05:09:17;;;;;;;14.02;10.40;;;-1.80;99.90;;;;;;4969874;28;20649;-25
2021/01/15 05:11:45;;;;;;;10.65;9.45;;;-1.90;99.90;;;;;;4968515;28;20231;-25
2021/01/15 05:14:13;;;;;;;12.98;8.63;;;-1.90;99.90;;;;;;4968852;28;20781;-25
2021/01/15 05:16:43;;;;;;;12.65;9.68;;;-1.90;99.90;;;;;;4968965;28;20980;-25
2021/01/15 05:19:11;;;;;;;10.57;9.45;;;-1.90;99.90;;;;;;4969311;28;20203;-25
2021/01/15 05:21:38;;;;;;;9.45;8.48;;;-2.00;99.90;;;;;;4969090;28;20218;-25
2021/01/15 05:24:07;;;;;;;11.55;9.63;;;-2.00;99.90;;;;;;4968610;28;20222;-25
2021/01/15 05:26:35;;;;;;;10.88;8.68;;;-2.00;99.90;;;;;;4966336;28;20220;-25
2021/01/15 05:29:03;;;;;;;10.35;9.30;;;-2.00;99.90;;;;;;4969129;28;20326;-25
2021/01/15 05:31:47;;;;;;;11.13;9.48;;;-2.00;99.90;;;;;;4969362;28;20226;-25
2021/01/15 05:34:13;;;;;;;11.52;9.63;;;-2.10;99.90;;;;;;4966138;28;20612;-25
2021/01/15 05:36:40;;;;;;;12.10;9.50;;;-2.10;99.90;;;;;;4967019;28;20211;-25
2021/01/15 05:39:10;;;;;;;11.32;9.57;;;-2.10;99.90;;;;;;4968782;28;20636;-25
2021/01/15 05:41:37;;;;;;;15.10;9.88;;;-2.10;99.90;;;;;;4966933;28;20776;-25
2021/01/15 05:44:05;;;;;;;15.23;9.68;;;-2.10;99.90;;;;;;4968101;28;20207;-25
2021/01/15 05:46:32;;;;;;;16.30;10.10;;;-2.10;99.90;;;;;;4968684;28;20207;-25
2021/01/15 05:49:09;;;;;;;12.48;9.23;;;-2.20;99.90;;;;;;4972603;28;20254;-25
2021/01/15 05:51:37;;;;;;;11.55;9.57;;;-2.20;99.90;;;;;;4970665;28;20223;-25
2021/01/15 05:54:05;;;;;;;10.95;9.50;;;-2.20;99.90;;;;;;4973685;28;20235;-25
2021/01/15 05:56:41;;;;;;;13.10;9.73;;;-2.20;99.90;;;;;;4971385;28;20210;-25
2021/01/15 05:59:11;;;;;;;14.23;11.35;;;-2.20;99.90;;;;;;4967276;28;20207;-25
2021/01/15 06:01:49;;;;;;;10.18;9.18;;;-2.30;99.90;;;;;;4969448;28;20198;-25
2021/01/15 06:04:17;;;;;;;13.00;10.20;;;-2.30;99.90;;;;;;4962938;28;20206;-25
2021/01/15 06:06:45;;;;;;;10.95;9.77;;;-2.30;99.90;;;;;;4961244;28;20226;-25
2021/01/15 06:09:18;;;;;;;18.88;13.45;;;-2.30;99.90;;;;;;4962412;28;20896;-25
2021/01/15 06:11:46;;;;;;;14.88;11.18;;;-2.30;99.90;;;;;;4960454;28;20874;-25
2021/01/15 06:14:21;;;;;;;18.45;11.73;;;-2.40;99.90;;;;;;4964474;28;20695;-25
2021/01/15 06:16:48;;;;;;;12.48;9.85;;;-2.40;99.90;;;;;;4960891;28;20195;-25
2021/01/15 06:19:15;;;;;;;16.77;11.65;;;-2.40;99.90;;;;;;4962508;28;20219;-25
2021/01/15 06:21:52;;;;;;;11.80;10.25;;;-2.40;99.90;;;;;;4960651;28;20211;-25
2021/01/15 06:24:22;;;;;;;14.02;11.63;;;-2.40;99.90;;;;;;4961630;28;20187;-25
2021/01/15 06:27:04;;;;;;;16.17;10.90;;;-2.40;99.90;;;;;;4963190;28;20192;-25
2021/01/15 06:29:42;;;;;;;14.40;10.77;;;-2.50;99.90;;;;;;4963256;28;20246;-25
2021/01/15 06:32:09;;;;;;;12.85;11.45;;;-2.50;99.90;;;;;;4962328;28;20229;-25
2021/01/15 06:34:47;;;;;;;13.32;11.38;;;-2.50;99.90;;;;;;4962020;28;20187;-25
2021/01/15 06:37:19;;;;;;;13.35;10.57;;;-2.50;99.90;;;;;;4958336;28;20223;-25
2021/01/15 06:40:09;;;;;;;15.43;12.00;;;-2.50;99.90;;;;;;4960689;28;20605;-25
2021/01/15 06:42:58;;;;;;;17.50;12.38;;;-2.60;99.90;;;;;;4960244;28;20207;-25
2021/01/15 06:45:25;;;;;;;17.02;10.60;;;-2.60;99.90;;;;;;4956609;28;20215;-25
2021/01/15 06:47:54;;;;;;;15.77;12.05;;;-2.60;99.90;;;;;;4959584;28;20208;-25
2021/01/15 06:50:21;;;;;;;17.63;13.85;;;-2.60;99.90;;;;;;4955913;28;20477;-25
2021/01/15 06:52:49;;;;;;;15.93;12.10;;;-2.60;99.90;;;;;;4958588;28;20235;-25
2021/01/15 06:55:18;;;;;;;12.65;10.90;;;-2.60;99.90;;;;;;4953192;28;20207;-25
2021/01/15 06:57:50;;;;;;;21.90;11.88;;;-2.60;99.90;;;;;;4952898;28;20206;-25
2021/01/15 07:00:22;;;;;;;17.67;13.57;;;-2.60;99.90;;;;;;4957146;28;20624;-25
2021/01/15 07:03:32;;;;;;;13.35;11.80;;;-2.60;99.90;;;;;;4952392;28;20767;-25
2021/01/15 07:06:01;;;;;;;18.20;12.07;;;-2.50;99.90;;;;;;4949203;28;20273;-25
2021/01/15 07:08:30;;;;;;;18.20;12.38;;;-2.50;99.90;;;;;;4952952;28;20215;-25
2021/01/15 07:10:59;;;;;;;16.00;11.73;;;-2.50;99.90;;;;;;4951915;28;20211;-25
2021/01/15 07:13:28;;;;;;;17.90;11.32;;;-2.50;99.90;;;;;;4950910;28;20199;-25
2021/01/15 07:15:56;;;;;;;14.82;12.23;;;-2.50;99.90;;;;;;4949437;28;20207;-25
2021/01/15 07:18:32;;;;;;;14.13;12.57;;;-2.50;99.90;;;;;;4930486;28;20192;-25
2021/01/15 07:21:07;;;;;;;15.35;11.93;;;-2.50;99.90;;;;;;4950096;28;20207;-25
2021/01/15 07:23:53;;;;;;;16.20;12.90;;;-2.50;99.90;;;;;;4948639;28;20226;-25
2021/01/15 07:26:19;;;;;;;18.58;12.70;;;-2.50;99.90;;;;;;4948126;28;20317;-25
2021/01/15 07:28:47;;;;;;;16.15;12.82;;;-2.50;99.90;;;;;;4945872;28;20198;-25
2021/01/15 07:31:23;;;;;;;16.67;12.55;;;-2.50;99.90;;;;;;4940941;28;20258;-25
2021/01/15 07:33:57;;;;;;;17.92;13.57;;;-2.40;99.90;;;;;;4946029;28;20203;-25
2021/01/15 07:36:37;;;;;;;16.23;13.27;;;-2.40;99.90;;;;;;4947162;28;20203;-25
2021/01/15 07:39:05;;;;;;;17.80;12.00;;;-2.40;99.90;;;;;;4947822;28;20263;-25
2021/01/15 07:41:44;;;;;;;14.65;11.60;;;-2.30;99.90;;;;;;4945720;28;20224;-25
2021/01/15 07:44:38;;;;;;;21.52;15.05;;;-2.30;99.90;;;;;;4942231;28;20209;-25
2021/01/15 07:47:12;;;;;;;25.40;17.00;;;-2.30;99.90;;;;;;4944603;28;20191;-25
2021/01/15 07:49:46;;;;;;;27.33;17.45;;;-2.20;99.90;;;;;;4939542;28;20306;-25
2021/01/15 07:52:14;;;;;;;32.00;19.50;;;-2.10;99.90;;;;;;4945038;28;20246;-25
2021/01/15 07:55:03;;;;;;;26.27;14.82;;;-2.20;99.90;;;;;;4940310;28;20259;-25
2021/01/15 07:57:31;;;;;;;19.63;13.45;;;-2.10;99.90;;;;;;4943446;28;20519;-25
2021/01/15 08:00:22;;;;;;;18.48;12.25;;;-2.10;99.90;;;;;;4940709;28;20203;-25
2021/01/15 08:02:50;;;;;;;17.73;13.07;;;-2.00;99.90;;;;;;4934854;28;20492;-25
2021/01/15 08:05:17;;;;;;;19.50;12.68;;;-2.00;99.90;;;;;;4932042;28;20226;-25
2021/01/15 08:07:43;;;;;;;19.95;15.60;;;-2.00;99.90;;;;;;4933443;28;20290;-25
2021/01/15 08:10:23;;;;;;;22.58;15.77;;;-1.90;99.90;;;;;;4932237;28;20241;-25
2021/01/15 08:12:49;;;;;;;23.10;14.45;;;-1.90;99.90;;;;;;4931719;28;20617;-24
2021/01/15 08:15:31;;;;;;;19.00;15.10;;;-1.80;99.90;;;;;;4933814;28;20405;-25
2021/01/15 08:18:03;;;;;;;22.77;13.77;;;-1.70;99.90;;;;;;4932184;28;20222;-25
2021/01/15 08:20:30;;;;;;;16.98;12.98;;;-1.70;99.90;;;;;;4935767;28;20333;-25
2021/01/15 08:22:57;;;;;;;15.93;11.70;;;-1.60;99.90;;;;;;4879087;28;20328;-25
2021/01/15 08:25:26;;;;;;;16.33;12.25;;;-1.60;99.90;;;;;;4937493;28;20280;-25
2021/01/15 08:27:52;;;;;;;14.60;11.50;;;-1.50;99.90;;;;;;4937267;28;20439;-25
2021/01/15 08:30:19;;;;;;;18.90;12.02;;;-1.40;99.90;;;;;;4932745;28;20742;-26
2021/01/15 08:32:47;;;;;;;18.90;13.57;;;-1.30;99.90;;;;;;4933010;28;20608;-25
2021/01/15 08:35:22;;;;;;;17.20;13.90;;;-1.30;99.90;;;;;;4933755;28;20222;-25
2021/01/15 08:37:57;;;;;;;14.02;12.57;;;-1.20;99.90;;;;;;4931557;28;20449;-25
2021/01/15 08:40:28;;;;;;;17.50;12.95;;;-1.10;99.90;;;;;;4933688;28;20680;-25
2021/01/15 08:42:56;;;;;;;16.85;12.30;;;-1.10;99.90;;;;;;4934921;28;20310;-25
2021/01/15 08:45:27;;;;;;;15.93;13.98;;;-1.00;99.90;;;;;;4930987;28;20375;-25
2021/01/15 08:47:56;;;;;;;19.02;13.55;;;-0.90;99.90;;;;;;4931771;28;20199;-25
2021/01/15 08:50:24;;;;;;;17.52;13.30;;;-0.90;99.90;;;;;;4909097;28;20353;-25
2021/01/15 08:52:51;;;;;;;22.52;14.20;;;-0.90;99.90;;;;;;4927872;28;20246;-25
2021/01/15 08:55:19;;;;;;;18.60;12.73;;;-0.80;99.90;;;;;;4934463;28;20236;-25
2021/01/15 08:57:48;;;;;;;16.30;13.32;;;-0.70;99.90;;;;;;4938298;28;20391;-25
2021/01/15 09:00:17;;;;;;;14.25;12.57;;;-0.70;99.90;;;;;;4933902;28;20204;-25
2021/01/15 09:02:45;;;;;;;19.85;13.85;;;-0.50;99.90;;;;;;4932194;28;20227;-25
2021/01/15 09:05:14;;;;;;;16.88;14.60;;;-0.40;99.90;;;;;;4931169;28;20200;-25
2021/01/15 09:08:03;;;;;;;28.02;18.67;;;-0.30;99.90;;;;;;4930962;28;20416;-25
2021/01/15 09:10:30;;;;;;;25.15;17.92;;;-0.30;99.90;;;;;;4930766;28;20438;-25
2021/01/15 09:13:04;;;;;;;23.10;17.13;;;-0.20;99.90;;;;;;4931430;28;20473;-26
2021/01/15 09:15:31;;;;;;;20.95;17.70;;;-0.10;99.90;;;;;;4930152;28;20210;-25
2021/01/15 09:17:59;;;;;;;30.13;17.58;;;-0.10;99.90;;;;;;4930973;28;20199;-26
2021/01/15 09:20:26;;;;;;;25.67;16.10;;;0.10;99.90;;;;;;4934953;28;20721;-25
2021/01/15 09:22:53;;;;;;;17.70;13.32;;;0.20;99.90;;;;;;4932145;28;20244;-25
2021/01/15 09:25:21;;;;;;;19.85;16.15;;;0.30;99.90;;;;;;4931530;28;20290;-25
2021/01/15 09:27:48;;;;;;;18.70;15.70;;;0.40;99.90;;;;;;4930747;28;20428;-25
2021/01/15 09:30:16;;;;;;;20.92;15.27;;;0.40;99.90;;;;;;4930468;28;20401;-25
2021/01/15 09:32:44;;;;;;;21.38;15.00;;;0.50;99.90;;;;;;4931198;28;20362;-25
2021/01/15 09:35:12;;;;;;;17.60;14.80;;;0.60;99.90;;;;;;4928579;28;20433;-25
2021/01/15 09:37:39;;;;;;;20.20;14.73;;;0.70;99.90;;;;;;4932159;28;20468;-25
2021/01/15 09:40:07;;;;;;;22.27;15.70;;;0.50;99.90;;;;;;4934486;28;20445;-25
2021/01/15 09:42:35;;;;;;;22.97;14.03;;;0.50;99.90;;;;;;4934888;28;20783;-25
2021/01/15 09:45:04;;;;;;;16.03;13.30;;;0.60;99.90;;;;;;4931936;28;20497;-25
2021/01/15 09:47:31;;;;;;;19.45;15.25;;;0.60;99.90;;;;;;4931964;28;20846;-25
2021/01/15 09:49:59;;;;;;;20.45;14.73;;;0.50;99.90;;;;;;4933698;28;20206;-26
2021/01/15 09:52:29;;;;;;;16.23;13.90;;;0.50;99.90;;;;;;4936680;28;20514;-26
2021/01/15 09:54:55;;;;;;;16.83;13.63;;;0.60;99.90;;;;;;4935704;28;20503;-25
2021/01/15 09:57:22;;;;;;;20.43;16.07;;;0.80;99.90;;;;;;4940537;28;20448;-26
2021/01/15 09:59:50;;;;;;;22.50;15.00;;;0.90;99.90;;;;;;4939037;28;20524;-26
2021/01/15 10:02:16;;;;;;;19.13;14.27;;;0.90;99.90;;;;;;4940682;28;20445;-25
2021/01/15 10:04:43;;;;;;;23.47;15.10;;;0.90;99.90;;;;;;4940103;28;20796;-25
2021/01/15 10:07:11;;;;;;;21.63;14.80;;;1.00;99.90;;;;;;4936903;28;20475;-25
2021/01/15 10:09:38;;;;;;;20.57;14.47;;;1.00;99.90;;;;;;4938670;28;20759;-26
2021/01/15 10:12:05;;;;;;;22.38;15.98;;;1.00;99.90;;;;;;4935936;28;20468;-26
2021/01/15 10:14:32;;;;;;;22.60;15.30;;;0.80;99.90;;;;;;4934978;28;20590;-26
2021/01/15 10:16:59;;;;;;;21.60;16.03;;;0.70;99.90;;;;;;4940873;28;21017;-25
2021/01/15 10:19:26;;;;;;;29.47;18.37;;;0.90;99.90;;;;;;4949195;28;20766;-26
2021/01/15 10:21:52;;;;;;;19.53;15.40;;;1.00;99.90;;;;;;4939861;28;20457;-26
2021/01/15 10:24:19;;;;;;;21.80;15.17;;;1.20;99.90;;;;;;4935290;28;20445;-26
2021/01/15 10:26:46;;;;;;;21.73;15.33;;;1.30;99.90;;;;;;4938885;28;20740;-25
2021/01/15 10:29:15;;;;;;;20.37;14.17;;;1.40;99.90;;;;;;4936927;28;20487;-26
2021/01/15 10:31:47;;;;;;;20.23;15.57;;;1.40;99.90;;;;;;4935783;28;20655;-26
2021/01/15 10:34:15;;;;;;;19.97;14.53;;;1.60;99.90;;;;;;4937514;28;20441;-25
2021/01/15 10:36:43;;;;;;;23.03;15.57;;;1.60;99.90;;;;;;4938616;28;20465;-26
2021/01/15 10:39:10;;;;;;;17.07;13.30;;;1.80;99.90;;;;;;4934766;28;20445;-25
2021/01/15 10:41:39;;;;;;;24.60;16.13;;;1.90;99.90;;;;;;4932055;28;20476;-25
2021/01/15 10:44:09;;;;;;;21.07;15.90;;;2.00;99.90;;;;;;4938300;28;20727;-25
2021/01/15 10:46:38;;;;;;;23.60;16.20;;;2.00;99.90;;;;;;4936013;28;20796;-25
2021/01/15 10:49:06;;;;;;;23.40;17.07;;;2.00;99.90;;;;;;4936601;28;20451;-25
2021/01/15 10:51:34;;;;;;;21.80;15.50;;;2.00;99.90;;;;;;4937153;28;20933;-25
2021/01/15 10:54:01;;;;;;;21.57;15.83;;;2.10;99.90;;;;;;4934821;28;20789;-25
2021/01/15 10:56:34;;;;;;;25.90;17.47;;;2.30;99.90;;;;;;4935204;28;20448;-24
2021/01/15 10:59:01;;;;;;;18.50;13.60;;;2.10;99.90;;;;;;4931655;28;21296;-24
2021/01/15 11:01:34;;;;;;;20.10;15.70;;;2.00;99.90;;;;;;4933995;28;20883;-24
2021/01/15 11:04:00;;;;;;;23.80;16.10;;;2.00;99.90;;;;;;4936241;28;20445;-24
2021/01/15 11:06:27;;;;;;;22.43;15.17;;;2.10;99.90;;;;;;4937859;28;20834;-24
2021/01/15 11:08:55;;;;;;;21.87;16.57;;;2.30;99.90;;;;;;4939506;28;20835;-24
2021/01/15 11:11:21;;;;;;;19.07;16.00;;;2.40;99.90;;;;;;4932572;28;20699;-24
2021/01/15 11:13:48;;;;;;;21.43;15.30;;;2.50;99.90;;;;;;4932771;28;20445;-25
2021/01/15 11:16:15;;;;;;;21.40;16.40;;;2.50;99.90;;;;;;4923462;28;20679;-25
2021/01/15 11:18:43;;;;;;;20.50;15.60;;;2.50;99.90;;;;;;4914915;28;20449;-24
2021/01/15 11:21:10;;;;;;;20.80;16.00;;;2.60;99.90;;;;;;4923985;28;20453;-25
2021/01/15 11:23:37;;;;;;;19.70;15.43;;;2.60;99.90;;;;;;4939475;28;20453;-24
2021/01/15 11:26:05;;;;;;;19.07;15.73;;;2.70;99.90;;;;;;4938438;28;20844;-24
2021/01/15 11:28:31;;;;;;;19.43;15.10;;;2.80;99.90;;;;;;4939435;28;20759;-24
2021/01/15 11:30:58;;;;;;;18.90;15.17;;;2.60;99.90;;;;;;4930136;28;20484;-25
2021/01/15 11:33:25;;;;;;;19.37;16.00;;;2.60;99.90;;;;;;4920413;28;20527;-25
2021/01/15 11:35:51;;;;;;;19.77;16.20;;;2.70;99.90;;;;;;4940488;28;20711;-25
2021/01/15 11:38:18;;;;;;;20.13;16.83;;;2.80;99.90;;;;;;4937660;28;20544;-24
2021/01/15 11:40:45;;;;;;;17.63;15.10;;;2.80;99.90;;;;;;4938751;28;20626;-24
2021/01/15 11:43:13;;;;;;;17.50;15.70;;;2.70;99.90;;;;;;4939605;28;20598;-24
2021/01/15 11:45:39;;;;;;;17.13;14.37;;;2.70;99.90;;;;;;4929470;28;20823;-25
2021/01/15 11:48:06;;;;;;;18.60;15.77;;;2.80;99.90;;;;;;4918671;28;20678;-25
2021/01/15 11:50:33;;;;;;;18.93;14.17;;;2.90;99.90;;;;;;4933435;28;20523;-24
2021/01/15 11:53:00;;;;;;;17.17;14.07;;;3.00;99.90;;;;;;4937941;28;21039;-24
2021/01/15 11:55:26;;;;;;;20.40;16.20;;;3.10;99.90;;;;;;4956622;28;20448;-24
2021/01/15 11:57:54;;;;;;;20.60;15.83;;;3.10;99.90;;;;;;4971234;28;20755;-25
2021/01/15 12:00:22;;;;;;;16.00;14.27;;;3.00;99.90;;;;;;4968329;28;20514;-25
2021/01/15 12:02:49;;;;;;;21.17;15.47;;;2.70;99.90;;;;;;4967329;28;20685;-25
2021/01/15 12:05:16;;;;;;;18.93;14.30;;;2.60;99.90;;;;;;4960607;28;20703;-25
2021/01/15 12:07:42;;;;;;;18.70;14.20;;;2.60;99.90;;;;;;4937611;28;21147;-25
2021/01/15 12:10:10;;;;;;;19.00;14.20;;;2.70;99.90;;;;;;4958110;28;21138;-25
2021/01/15 12:12:38;;;;;;;15.07;13.47;;;2.80;99.90;;;;;;4940292;28;20692;-25
2021/01/15 12:15:08;;;;;;;14.50;13.00;;;2.90;99.90;;;;;;4967884;28;20499;-25
2021/01/15 12:17:39;;;;;;;14.90;13.30;;;2.80;99.90;;;;;;4968719;28;20447;-25
2021/01/15 12:20:08;;;;;;;15.37;13.50;;;2.70;99.90;;;;;;4968177;28;20479;-25
2021/01/15 12:22:35;;;;;;;18.97;14.17;;;2.70;99.90;;;;;;4960856;28;20785;-26
2021/01/15 12:25:01;;;;;;;15.83;12.97;;;2.90;99.90;;;;;;4963000;28;20445;-24
2021/01/15 12:27:28;;;;;;;15.20;13.57;;;3.00;99.90;;;;;;4960925;28;20698;-26
2021/01/15 12:29:55;;;;;;;15.07;11.70;;;3.20;99.90;;;;;;4963795;28;20467;-26
2021/01/15 12:32:21;;;;;;;17.40;13.90;;;3.20;99.90;;;;;;4945133;28;20484;-26
2021/01/15 12:34:49;;;;;;;15.40;13.00;;;3.30;99.90;;;;;;4958003;28;20587;-26
2021/01/15 12:37:22;;;;;;;15.40;12.70;;;3.40;99.90;;;;;;4961479;28;20738;-26
2021/01/15 12:39:49;;;;;;;14.70;12.37;;;3.60;99.90;;;;;;4964394;28;20440;-26
2021/01/15 12:42:18;;;;;;;17.10;12.70;;;3.60;99.90;;;;;;4963092;28;20436;-26
2021/01/15 12:44:45;;;;;;;14.67;12.60;;;3.60;99.90;;;;;;4963916;28;20832;-26
2021/01/15 12:47:12;;;;;;;13.23;11.83;;;3.70;99.90;;;;;;4961359;28;20654;-26
2021/01/15 12:49:39;;;;;;;15.73;12.70;;;3.80;99.90;;;;;;4942914;28;20444;-26